Aérodrome :
LOGIN :

S'inscrire | Disclaimer

   EN    FR    IT 

 










Légende :    VFR   VFR Marginal   IFR   IFR Intensif   IFR Très Intensif
Visi : 
Plafond : 
>= 8 km
>= 3000ft
5 à 8 km
1000 à 3000 ft
1500m à 5 km
500 à 1000 ft
800 à 1500m
200 à 500 ft
< 800m
< 200 ft
Symboles :   Orages  Brouillard  Fortes neiges  Fortes précipitations  Vent > 20 kt
SIGMETs :   Divers  Orages  Givrage  Turbulence  Onde Orograph.  Cendres Volcan.






- Altitude de l'aérodrome : 70 ft
- Code IATA : LEI


LEAM - Almeria

DERNIER METAR :
  • 220900Z 18003KT 140V230 CAVOK 25/12 Q1020

METARs EXPIRÉS :
  • 220830Z 19003KT 150V240 CAVOK 24/13 Q1020
  • 220800Z 16003KT 110V280 CAVOK 24/12 Q1020
  • 220730Z 16003KT 100V230 CAVOK 23/13 Q1020
  • 220700Z VRB02KT CAVOK 24/12 Q1020
  • 220630Z 34005KT CAVOK 25/08 Q1020
  • 220600Z VRB01KT CAVOK 22/09 Q1019
  • 220530Z 35004KT CAVOK 22/09 Q1019
  • 220500Z 35005KT CAVOK 21/08 Q1019
  • 220430Z 30004KT CAVOK 20/08 Q1019
  • 220400Z VRB01KT CAVOK 21/09 Q1019

TAF TAF LEAM
Valide du 22 à 06h jusqu'au 23 à 06h UTC


220500Z 2206/2306 VRB02KT CAVOK TX28/2215Z TN21/2305Z
BECMG 2209/2212 19010KT
BECMG 2218/2220 VRB02KT



MET'MAP, la Météo Aéronautique d'un coup d'oeil ! - Copyright ORBIFLY Décembre 2007 - Disclaimer

ORBIFLY MET'MAP TEAM :

Programmation & Développement : Alexandra Zaïnal
Sur une idée originale de : Baudouin d'Aumeries
Soutien technique & logistique : Manuel Goepfert
Assistance : Marc-Olivier Méhu




SOURCES & CREDITS :

   NOAA